Time;durP1;ratioP1;P1;durP2;ratioP2;P2;SDS_P1;SDS_P2;PMS_P1;PMS_P2;Temp;Humidity;BMP_temperature;BMP_pressure;BME280_temperature;BME280_humidity;BME280_pressure;Samples;Min_cycle;Max_cycle;Signal;HPM_P1;HPM_P2
2022/06/10 00:00:23;;;;;;;6.65;2.25;;;17.90;99.90;;;;;;4830319;29;20497;-83
2022/06/10 00:02:49;;;;;;;6.47;2.10;;;17.90;99.90;;;;;;4840444;29;20078;-83
2022/06/10 00:05:18;;;;;;;5.25;1.77;;;17.80;99.90;;;;;;4823235;29;20439;-83
2022/06/10 00:07:44;;;;;;;6.13;1.60;;;17.80;99.90;;;;;;4823138;29;20075;-83
2022/06/10 00:10:13;;;;;;;12.68;2.30;;;17.80;99.90;;;;;;4822993;29;20550;-83
2022/06/10 00:12:39;;;;;;;7.53;1.77;;;17.80;99.90;;;;;;4823608;29;20511;-83
2022/06/10 00:15:06;;;;;;;8.60;2.00;;;17.80;99.90;;;;;;4834770;29;20022;-83
2022/06/10 00:17:32;;;;;;;7.70;1.65;;;17.70;99.90;;;;;;4841337;29;20033;-83
2022/06/10 00:19:58;;;;;;;9.32;2.10;;;17.70;99.90;;;;;;4841376;29;20034;-83
2022/06/10 00:22:24;;;;;;;11.15;1.80;;;17.80;99.90;;;;;;4840721;29;20109;-83
2022/06/10 00:24:51;;;;;;;10.10;2.13;;;17.70;99.90;;;;;;4841825;29;20140;-83
2022/06/10 00:27:18;;;;;;;5.18;1.50;;;17.60;99.90;;;;;;4840971;29;20563;-83
2022/06/10 00:29:44;;;;;;;8.10;2.13;;;17.40;99.90;;;;;;4840655;29;20402;-83
2022/06/10 00:32:09;;;;;;;6.47;2.50;;;17.40;99.90;;;;;;4841111;29;20034;-83
2022/06/10 00:34:36;;;;;;;10.93;2.00;;;17.30;99.90;;;;;;4841588;29;20033;-83
2022/06/10 00:37:06;;;;;;;8.80;2.00;;;17.10;99.90;;;;;;4840974;29;20022;-83
2022/06/10 00:39:33;;;;;;;7.38;1.73;;;17.10;99.90;;;;;;4841069;29;20038;-83
2022/06/10 00:41:59;;;;;;;8.73;1.85;;;17.00;99.90;;;;;;4840171;29;20029;-83
2022/06/10 00:44:34;;;;;;;9.00;1.90;;;16.90;99.90;;;;;;4840956;29;20404;-83
2022/06/10 00:47:01;;;;;;;5.95;1.52;;;16.90;99.90;;;;;;4841093;29;20402;-82
2022/06/10 00:49:28;;;;;;;17.55;1.98;;;16.90;99.90;;;;;;4840005;29;20036;-83
2022/06/10 00:51:55;;;;;;;11.60;2.45;;;17.00;99.90;;;;;;4841370;29;20041;-83
2022/06/10 00:54:27;;;;;;;3.92;1.92;;;17.00;99.90;;;;;;4841493;29;20029;-83
2022/06/10 00:56:55;;;;;;;6.25;1.95;;;16.90;99.90;;;;;;4844833;29;20030;-83
2022/06/10 00:59:25;;;;;;;6.32;2.00;;;16.80;99.90;;;;;;4844504;29;20094;-83
2022/06/10 01:01:55;;;;;;;10.35;3.10;;;16.90;99.90;;;;;;4858174;29;20094;-83
2022/06/10 01:04:21;;;;;;;9.73;3.03;;;16.90;99.90;;;;;;4837138;29;20031;-83
2022/06/10 01:06:47;;;;;;;12.48;3.35;;;16.90;99.90;;;;;;4826232;29;20026;-83
2022/06/10 01:09:13;;;;;;;13.38;3.80;;;16.90;99.90;;;;;;4830481;29;20042;-83
2022/06/10 01:11:42;;;;;;;7.35;2.95;;;16.90;99.90;;;;;;4825578;29;20053;-83
2022/06/10 01:14:16;;;;;;;13.48;3.03;;;16.80;99.90;;;;;;4825947;29;20083;-83
2022/06/10 01:16:55;;;;;;;8.43;2.65;;;16.80;99.90;;;;;;4826494;29;20415;-84
2022/06/10 01:19:37;;;;;;;8.80;2.80;;;16.80;99.90;;;;;;4826000;29;20034;-83
2022/06/10 01:22:30;;;;;;;10.88;3.10;;;16.70;99.90;;;;;;4825832;29;20042;-83
2022/06/10 01:25:22;;;;;;;9.50;2.90;;;16.70;99.90;;;;;;4825762;29;20073;-83
2022/06/10 01:27:54;;;;;;;;;;;16.60;99.90;;;;;;4841556;29;20046;-83
2022/06/10 01:30:41;;;;;;;9.98;2.53;;;16.60;99.90;;;;;;4844300;29;19974;-83
2022/06/10 01:33:34;;;;;;;10.63;2.85;;;16.50;99.90;;;;;;4844111;29;20038;-83
2022/06/10 01:36:09;;;;;;;6.63;2.42;;;16.50;99.90;;;;;;4844348;29;20025;-83
2022/06/10 01:39:08;;;;;;;7.13;2.60;;;16.60;99.90;;;;;;4829841;29;20035;-83
2022/06/10 01:41:46;;;;;;;10.40;2.40;;;16.50;99.90;;;;;;4825445;29;20057;-83
2022/06/10 01:44:37;;;;;;;5.93;2.30;;;16.40;99.90;;;;;;4825651;29;20027;-83
2022/06/10 01:47:35;;;;;;;13.50;3.03;;;16.40;99.90;;;;;;4787192;30;20551;-83
2022/06/10 01:50:04;;;;;;;8.00;2.65;;;16.50;99.90;;;;;;4804810;29;20043;-83
2022/06/10 01:52:40;;;;;;;5.85;2.28;;;16.40;99.90;;;;;;4804744;29;20103;-83
2022/06/10 01:55:08;;;;;;;9.43;3.22;;;16.30;99.90;;;;;;4805302;29;20039;-83
2022/06/10 01:57:36;;;;;;;5.45;1.95;;;16.30;99.90;;;;;;4789829;29;20177;-82
2022/06/10 02:00:09;;;;;;;8.40;2.70;;;16.30;99.90;;;;;;4805017;29;20158;-83
2022/06/10 02:02:39;;;;;;;6.15;1.95;;;16.30;99.90;;;;;;4804612;29;20035;-83
2022/06/10 02:05:10;;;;;;;7.05;2.10;;;16.30;99.90;;;;;;4804876;29;20467;-83
2022/06/10 02:07:45;;;;;;;10.90;3.30;;;16.30;99.90;;;;;;4804929;29;20030;-83
2022/06/10 02:10:36;;;;;;;6.55;2.40;;;16.20;99.90;;;;;;4789134;29;20053;-82
2022/06/10 02:13:15;;;;;;;5.07;1.85;;;16.20;99.90;;;;;;4781252;29;20045;-82
2022/06/10 02:15:49;;;;;;;5.30;2.28;;;16.10;99.90;;;;;;4804751;29;20039;-83
2022/06/10 02:18:34;;;;;;;8.93;3.17;;;16.00;99.90;;;;;;4804629;29;20079;-83
2022/06/10 02:21:15;;;;;;;11.40;2.53;;;16.10;99.90;;;;;;4789639;29;20042;-83
2022/06/10 02:23:45;;;;;;;8.25;2.17;;;16.00;99.90;;;;;;4811765;29;20064;-83
2022/06/10 02:26:12;;;;;;;11.48;2.00;;;16.00;99.90;;;;;;4825245;29;20022;-83
2022/06/10 02:28:41;;;;;;;5.80;2.10;;;16.00;99.90;;;;;;4824702;29;20086;-83
2022/06/10 02:31:27;;;;;;;8.52;2.00;;;16.00;99.90;;;;;;4824556;29;20042;-83
2022/06/10 02:33:54;;;;;;;9.50;1.92;;;16.00;99.90;;;;;;4824766;29;20065;-83
2022/06/10 02:36:33;;;;;;;5.80;2.10;;;16.00;99.90;;;;;;4824488;29;20038;-83
2022/06/10 02:39:13;;;;;;;11.02;1.95;;;16.00;99.90;;;;;;4824800;29;20038;-83
2022/06/10 02:41:46;;;;;;;8.90;2.05;;;15.90;99.90;;;;;;4836055;29;20490;-83
2022/06/10 02:44:17;;;;;;;5.70;2.00;;;15.80;99.90;;;;;;4842483;29;20059;-83
2022/06/10 02:47:04;;;;;;;11.30;2.47;;;15.80;99.90;;;;;;4842492;29;20105;-83
2022/06/10 02:49:30;;;;;;;8.98;2.83;;;15.80;99.90;;;;;;4842001;29;20067;-83
2022/06/10 02:51:57;;;;;;;10.23;2.33;;;15.70;99.90;;;;;;4842755;29;20038;-83
2022/06/10 02:54:32;;;;;;;6.15;2.08;;;15.70;99.90;;;;;;4856856;29;20034;-83
2022/06/10 02:57:10;;;;;;;4.63;1.75;;;15.60;99.90;;;;;;4842942;29;20029;-83
2022/06/10 03:02:43;;;;;;;9.35;2.10;;;15.70;99.90;;;;;;4842495;29;20052;-83
2022/06/10 03:05:20;;;;;;;7.40;2.00;;;15.60;99.90;;;;;;4832453;29;20038;-83
2022/06/10 03:07:58;;;;;;;7.53;2.63;;;15.70;99.90;;;;;;4842130;29;20398;-83
2022/06/10 03:10:26;;;;;;;6.70;2.00;;;15.50;99.90;;;;;;4840570;29;20537;-83
2022/06/10 03:13:13;;;;;;;4.90;1.77;;;15.60;99.90;;;;;;4824530;29;20104;-83
2022/06/10 03:15:47;;;;;;;8.52;2.30;;;15.50;99.90;;;;;;4823557;29;20101;-83
2022/06/10 03:18:21;;;;;;;8.32;2.58;;;15.50;99.90;;;;;;4823718;29;20030;-83
2022/06/10 03:21:06;;;;;;;3.60;2.22;;;15.50;99.90;;;;;;4822750;29;20113;-83
2022/06/10 03:23:40;;;;;;;4.80;1.70;;;15.40;99.90;;;;;;4823985;29;20049;-83
2022/06/10 03:26:26;;;;;;;5.25;1.63;;;15.50;99.90;;;;;;4824242;29;20510;-83
2022/06/10 03:29:07;;;;;;;7.38;2.22;;;15.40;99.90;;;;;;4822831;29;20099;-83
2022/06/10 03:31:42;;;;;;;10.50;2.55;;;15.40;99.90;;;;;;4823790;29;20022;-83
2022/06/10 03:34:17;;;;;;;9.50;2.00;;;15.40;99.90;;;;;;4823994;29;20030;-83
2022/06/10 03:36:44;;;;;;;7.18;2.08;;;15.30;99.90;;;;;;4823588;29;20109;-83
2022/06/10 03:39:10;;;;;;;13.70;3.05;;;15.30;99.90;;;;;;4832344;29;20488;-83
2022/06/10 03:41:42;;;;;;;8.15;1.73;;;15.30;99.90;;;;;;4840102;29;20038;-83
2022/06/10 03:44:17;;;;;;;6.20;2.20;;;15.20;99.90;;;;;;4841606;29;20053;-83
2022/06/10 03:46:48;;;;;;;10.60;1.75;;;15.20;99.90;;;;;;4841981;29;20067;-83
2022/06/10 03:49:15;;;;;;;4.43;1.73;;;15.20;99.90;;;;;;4841285;29;20113;-83
2022/06/10 03:51:42;;;;;;;5.15;1.88;;;15.20;99.90;;;;;;4841759;29;20053;-83
2022/06/10 03:54:09;;;;;;;7.55;1.80;;;15.10;99.90;;;;;;4841721;29;20138;-83
2022/06/10 03:56:36;;;;;;;6.00;1.70;;;15.10;99.90;;;;;;4841410;29;20120;-83
2022/06/10 03:59:03;;;;;;;4.80;1.60;;;15.20;99.90;;;;;;4841368;29;20026;-83
2022/06/10 04:01:28;;;;;;;5.93;2.03;;;15.20;99.90;;;;;;4841460;29;20032;-82
2022/06/10 04:03:54;;;;;;;8.18;2.05;;;15.10;99.90;;;;;;4840551;29;20030;-82
2022/06/10 04:06:20;;;;;;;10.63;2.58;;;15.10;99.90;;;;;;4841673;29;20084;-82
2022/06/10 04:08:45;;;;;;;6.43;1.92;;;15.10;99.90;;;;;;4841263;29;20038;-82
2022/06/10 04:11:11;;;;;;;7.85;2.30;;;15.10;99.90;;;;;;4841305;29;20050;-82
2022/06/10 04:13:37;;;;;;;8.82;2.33;;;15.00;99.90;;;;;;4839724;29;20045;-81
2022/06/10 04:16:03;;;;;;;7.78;2.75;;;15.10;99.90;;;;;;4841294;29;20030;-80
2022/06/10 04:18:28;;;;;;;9.80;1.92;;;15.00;99.90;;;;;;4841094;29;20034;-79
2022/06/10 04:20:54;;;;;;;10.30;2.40;;;15.00;99.90;;;;;;4840683;29;20026;-79
2022/06/10 04:23:20;;;;;;;7.03;1.95;;;15.10;99.90;;;;;;4839632;29;20098;-80
2022/06/10 04:25:46;;;;;;;7.20;2.22;;;15.00;99.90;;;;;;4822997;29;20433;-79
2022/06/10 04:28:13;;;;;;;8.25;1.95;;;15.00;99.90;;;;;;4823360;29;20033;-82
2022/06/10 04:30:42;;;;;;;11.40;2.65;;;15.00;99.90;;;;;;4824082;29;20126;-82
2022/06/10 04:33:08;;;;;;;8.63;2.45;;;15.00;99.90;;;;;;4826730;29;20034;-81
2022/06/10 04:35:36;;;;;;;7.85;1.90;;;15.00;99.90;;;;;;4828922;29;20519;-81
2022/06/10 04:38:03;;;;;;;9.10;2.38;;;15.00;99.90;;;;;;4834439;29;20627;-80
2022/06/10 04:40:31;;;;;;;12.93;2.33;;;15.00;99.90;;;;;;4840873;29;20106;-81
2022/06/10 04:42:58;;;;;;;8.48;2.67;;;15.10;99.90;;;;;;4826375;29;20034;-83
2022/06/10 04:45:28;;;;;;;10.55;2.35;;;15.00;99.90;;;;;;4826876;29;20503;-83
2022/06/10 04:47:54;;;;;;;11.18;2.30;;;15.00;99.90;;;;;;4846356;29;20026;-83
2022/06/10 04:50:22;;;;;;;9.40;2.70;;;15.10;99.90;;;;;;4843381;29;20018;-82
2022/06/10 04:52:48;;;;;;;8.52;2.40;;;15.10;99.90;;;;;;4844550;29;20479;-82
2022/06/10 04:55:14;;;;;;;11.82;2.80;;;15.10;99.90;;;;;;4841586;29;20037;-81
2022/06/10 04:57:40;;;;;;;9.23;2.38;;;15.10;99.90;;;;;;4847959;29;20029;-81
2022/06/10 05:00:10;;;;;;;8.95;2.47;;;15.10;99.90;;;;;;4845966;29;20479;-81
2022/06/10 05:02:36;;;;;;;7.80;2.72;;;15.20;99.90;;;;;;4835369;29;20031;-81
2022/06/10 05:05:02;;;;;;;7.88;2.22;;;15.20;99.90;;;;;;4840242;29;20071;-79
2022/06/10 05:07:28;;;;;;;8.70;2.53;;;15.20;99.90;;;;;;4833717;29;20041;-82
2022/06/10 05:09:53;;;;;;;7.45;2.28;;;15.20;99.90;;;;;;4851843;29;20037;-83
2022/06/10 05:12:19;;;;;;;12.15;2.30;;;15.20;99.90;;;;;;4839921;29;20083;-84
2022/06/10 05:14:45;;;;;;;10.82;3.30;;;15.30;99.90;;;;;;4831576;29;20038;-83
2022/06/10 10:29:53;;;;;;;6.60;1.60;;;28.10;68.50;;;;;;5069888;24;20057;-80
2022/06/10 10:32:21;;;;;;;;;;;27.90;65.80;;;;;;4860923;29;20030;-79
2022/06/10 10:34:55;;;;;;;4.72;1.42;;;28.10;66.70;;;;;;4860451;29;20002;-79
2022/06/10 10:37:29;;;;;;;5.38;1.42;;;28.20;66.20;;;;;;4861042;29;20087;-78
2022/06/10 10:40:00;;;;;;;5.15;1.30;;;27.40;66.00;;;;;;4861017;29;20500;-78
2022/06/10 10:42:30;;;;;;;;;;;27.90;65.50;;;;;;4861517;29;20030;-81
2022/06/10 10:45:00;;;;;;;8.43;1.58;;;27.90;64.20;;;;;;4860450;29;20439;-79
2022/06/10 10:47:27;;;;;;;4.03;1.20;;;28.00;64.70;;;;;;4860841;29;20117;-79
2022/06/10 10:50:15;;;;;;;8.07;1.58;;;28.20;63.20;;;;;;4856655;29;20052;-79
2022/06/10 10:52:44;;;;;;;8.30;1.67;;;28.10;64.70;;;;;;4854785;29;20033;-79
2022/06/10 10:55:12;;;;;;;5.43;1.38;;;28.40;63.30;;;;;;4849432;29;20401;-79
2022/06/10 10:57:43;;;;;;;4.35;1.23;;;28.70;62.30;;;;;;4860429;29;20026;-79
2022/06/10 11:00:12;;;;;;;7.65;1.42;;;28.30;60.60;;;;;;4858091;29;20030;-79
2022/06/10 11:02:40;;;;;;;4.40;1.20;;;28.30;61.50;;;;;;4859586;29;20033;-79
2022/06/10 11:05:15;;;;;;;10.68;1.75;;;28.50;60.40;;;;;;4859561;29;20051;-79
2022/06/10 11:07:42;;;;;;;8.57;1.60;;;28.40;59.30;;;;;;4861159;29;20033;-80
2022/06/10 11:10:28;;;;;;;6.95;1.70;;;28.30;59.40;;;;;;4860652;29;20036;-80
2022/06/10 11:12:54;;;;;;;5.93;1.42;;;28.60;58.70;;;;;;4861210;29;20040;-80
2022/06/10 15:28:48;;;;;;;4.53;1.30;;;29.80;47.70;;;;;;5699578;23;20049;-82
2022/06/10 15:31:17;;;;;;;3.58;1.23;;;29.70;48.00;;;;;;4842589;29;20531;-88
2022/06/10 15:33:44;;;;;;;9.00;1.60;;;29.50;45.80;;;;;;4847717;29;20029;-89
2022/06/10 15:42:19;;;;;;;23.23;1.65;;;29.60;48.60;;;;;;4786375;29;20413;-88
2022/06/10 15:44:45;;;;;;;3.33;1.02;;;29.60;48.20;;;;;;4784777;29;20027;-81
2022/06/10 15:47:14;;;;;;;3.88;0.90;;;29.50;48.60;;;;;;4787489;29;20039;-86
2022/06/10 15:49:41;;;;;;;3.60;1.00;;;29.50;49.00;;;;;;4783003;29;20050;-86
2022/06/10 15:52:13;;;;;;;2.65;1.00;;;29.60;47.90;;;;;;4791248;29;20121;-87
2022/06/10 15:58:12;;;;;;;3.35;1.15;;;29.50;49.10;;;;;;4788002;29;20101;-86
2022/06/10 16:00:38;;;;;;;4.28;1.13;;;29.60;48.10;;;;;;4784792;29;20142;-87
2022/06/10 16:03:04;;;;;;;6.00;1.38;;;29.70;46.80;;;;;;4796861;29;20531;-87
2022/06/10 16:05:33;;;;;;;7.82;1.20;;;29.50;47.30;;;;;;4798735;29;20031;-87
2022/06/10 16:07:59;;;;;;;5.65;0.98;;;29.40;48.40;;;;;;4788338;29;20127;-87
2022/06/10 16:10:28;;;;;;;3.50;0.88;;;29.20;48.70;;;;;;4782550;30;20054;-87
2022/06/10 16:13:04;;;;;;;3.30;1.23;;;29.30;48.70;;;;;;4816685;29;20429;-87
2022/06/10 16:15:38;;;;;;;5.60;1.00;;;29.40;48.50;;;;;;4845388;29;20502;-87
2022/06/10 16:18:12;;;;;;;4.80;0.80;;;29.40;48.00;;;;;;4844719;29;20038;-87
2022/06/10 16:20:39;;;;;;;5.53;0.73;;;29.20;45.60;;;;;;4836273;29;20018;-87
2022/06/10 16:23:09;;;;;;;5.47;0.98;;;29.20;46.00;;;;;;4853241;29;20025;-87
2022/06/10 16:25:35;;;;;;;3.30;0.90;;;29.30;46.10;;;;;;4846044;29;20022;-87
2022/06/10 16:28:03;;;;;;;3.53;0.90;;;29.40;46.30;;;;;;4851964;29;20018;-87
2022/06/10 16:30:30;;;;;;;3.15;0.90;;;29.50;47.00;;;;;;4844481;29;20498;-87
2022/06/10 16:32:57;;;;;;;4.43;1.13;;;29.30;47.10;;;;;;4850265;29;20206;-87
2022/06/10 16:35:26;;;;;;;4.20;0.80;;;29.20;46.70;;;;;;4847753;29;20049;-87
2022/06/10 16:37:52;;;;;;;4.43;0.95;;;29.20;44.40;;;;;;4855028;29;20052;-87
2022/06/10 16:40:19;;;;;;;3.33;1.10;;;29.00;46.20;;;;;;4841983;29;20058;-87
2022/06/10 16:42:49;;;;;;;4.70;1.38;;;29.00;47.30;;;;;;4841932;29;20398;-87
2022/06/10 16:45:19;;;;;;;3.72;1.30;;;29.00;48.20;;;;;;4832510;29;20113;-87
2022/06/10 16:47:45;;;;;;;4.20;1.08;;;28.90;49.10;;;;;;4840223;29;20025;-87
2022/06/10 16:50:17;;;;;;;8.02;1.20;;;29.00;49.00;;;;;;4842342;29;20036;-87
2022/06/10 16:52:43;;;;;;;;;;;29.10;48.40;;;;;;4852510;29;20025;-92
2022/06/10 16:55:14;;;;;;;2.90;0.98;;;28.90;47.00;;;;;;4849260;29;19989;-87
2022/06/10 16:57:46;;;;;;;4.25;0.93;;;28.90;47.40;;;;;;4850825;29;20447;-82
2022/06/10 17:00:24;;;;;;;2.70;1.08;;;28.80;48.80;;;;;;4844080;29;20073;-85
2022/06/10 17:02:55;;;;;;;4.72;1.17;;;28.30;49.40;;;;;;4850791;29;20089;-87
2022/06/10 17:05:25;;;;;;;3.83;1.08;;;28.40;50.00;;;;;;4844398;29;20496;-86
2022/06/10 17:07:52;;;;;;;3.60;1.02;;;28.40;50.30;;;;;;4843791;29;20074;-85
2022/06/10 17:10:18;;;;;;;3.33;1.15;;;28.40;49.60;;;;;;4850867;29;20536;-87
2022/06/10 17:12:49;;;;;;;5.28;1.10;;;28.30;50.00;;;;;;4851827;29;20562;-87
2022/06/10 17:15:23;;;;;;;2.50;0.93;;;28.40;49.70;;;;;;4844571;29;20379;-87
2022/06/10 17:17:49;;;;;;;3.67;0.98;;;28.40;49.40;;;;;;4848217;29;20073;-88
2022/06/10 17:20:38;;;;;;;4.68;0.73;;;28.30;48.90;;;;;;4845130;29;20033;-88
2022/06/10 17:23:07;;;;;;;3.10;0.80;;;28.50;48.90;;;;;;4847791;29;20026;-88
2022/06/10 17:25:36;;;;;;;5.88;1.20;;;28.50;48.10;;;;;;4851453;29;20509;-87
2022/06/10 17:28:04;;;;;;;5.88;1.15;;;28.30;48.80;;;;;;4845630;29;20517;-87
2022/06/10 17:30:46;;;;;;;3.72;0.80;;;28.10;47.90;;;;;;4837417;29;20062;-87
2022/06/10 17:33:16;;;;;;;3.85;1.30;;;28.00;48.20;;;;;;4849219;29;20068;-88
2022/06/10 17:35:42;;;;;;;4.72;0.98;;;28.10;48.50;;;;;;4840199;29;20425;-88
2022/06/10 17:38:42;;;;;;;4.47;1.25;;;28.10;48.90;;;;;;4850169;29;20098;-88
2022/06/10 17:41:28;;;;;;;5.00;1.50;;;28.00;49.90;;;;;;4810712;29;20058;-85
2022/06/10 17:44:04;;;;;;;3.72;1.08;;;27.70;50.60;;;;;;4816213;29;20046;-83
2022/06/10 17:46:43;;;;;;;3.53;0.95;;;27.50;50.80;;;;;;4812894;29;20234;-85
2022/06/10 17:49:38;;;;;;;4.38;1.10;;;27.40;51.40;;;;;;4794188;29;20522;-85
2022/06/10 17:52:23;;;;;;;5.03;0.93;;;27.30;51.50;;;;;;4799248;29;20099;-85
2022/06/10 17:54:52;;;;;;;2.15;0.90;;;27.10;51.30;;;;;;4806450;29;20461;-85
2022/06/10 17:57:39;;;;;;;3.72;1.10;;;27.00;52.30;;;;;;4809152;29;20170;-85
2022/06/10 18:00:14;;;;;;;5.05;0.90;;;26.90;53.20;;;;;;4809374;29;20583;-85
2022/06/10 18:02:44;;;;;;;3.60;1.08;;;26.80;53.80;;;;;;4809274;29;20030;-89
2022/06/10 18:05:17;;;;;;;5.72;1.35;;;26.80;54.10;;;;;;4790568;29;20038;-82
2022/06/10 18:07:43;;;;;;;6.63;1.27;;;26.70;54.40;;;;;;4807637;29;20030;-88
2022/06/10 18:10:09;;;;;;;3.28;1.08;;;26.70;54.60;;;;;;4805683;29;20462;-84
2022/06/10 18:12:40;;;;;;;3.80;1.33;;;26.70;54.70;;;;;;4792165;29;20034;-83
2022/06/10 18:15:09;;;;;;;4.75;1.50;;;26.70;54.50;;;;;;4812231;29;20035;-89
2022/06/10 18:17:39;;;;;;;3.78;1.33;;;26.80;54.30;;;;;;4834559;29;20049;-86
2022/06/10 18:20:13;;;;;;;6.38;1.48;;;26.80;53.90;;;;;;4850537;29;20509;-83
2022/06/10 18:22:39;;;;;;;3.75;1.40;;;26.80;54.40;;;;;;4845731;29;20057;-84
2022/06/10 18:25:05;;;;;;;4.85;1.40;;;26.70;54.10;;;;;;4847671;29;20057;-83
2022/06/10 18:27:35;;;;;;;3.40;1.00;;;26.70;54.50;;;;;;4849428;29;20030;-83
2022/06/10 18:30:12;;;;;;;7.07;2.20;;;26.60;54.50;;;;;;4845830;29;20069;-87
2022/06/10 18:32:38;;;;;;;4.53;1.10;;;26.50;55.30;;;;;;4857621;29;20044;-87
2022/06/10 18:35:24;;;;;;;4.68;1.27;;;26.40;55.30;;;;;;4846076;29;20486;-89
2022/06/10 18:37:50;;;;;;;5.95;1.65;;;26.30;55.20;;;;;;4840342;29;20091;-90
2022/06/10 18:40:23;;;;;;;5.65;1.20;;;26.20;56.00;;;;;;4847733;29;20029;-85
2022/06/10 18:42:56;;;;;;;3.63;1.30;;;26.10;56.80;;;;;;4841116;29;20026;-89
2022/06/10 18:45:24;;;;;;;7.30;1.60;;;26.10;56.30;;;;;;4840206;29;20057;-90
2022/06/10 18:47:51;;;;;;;3.80;1.30;;;26.00;56.50;;;;;;4844065;29;20083;-89
2022/06/10 18:50:25;;;;;;;3.78;1.25;;;25.90;57.00;;;;;;4850033;29;20029;-90
2022/06/10 18:52:56;;;;;;;6.28;1.40;;;25.80;57.00;;;;;;4855189;29;20041;-89
2022/06/10 18:55:24;;;;;;;6.03;1.47;;;25.80;59.40;;;;;;4849955;29;20026;-89
2022/06/10 18:57:52;;;;;;;6.60;1.27;;;25.70;57.40;;;;;;4845387;29;20274;-90
2022/06/10 19:00:19;;;;;;;5.88;1.40;;;25.70;57.50;;;;;;4852751;29;20028;-89
2022/06/10 19:02:48;;;;;;;5.30;1.50;;;25.60;56.70;;;;;;4841904;29;20082;-89
2022/06/10 19:05:31;;;;;;;3.17;1.45;;;25.50;56.70;;;;;;4845136;29;20394;-90
2022/06/10 19:07:57;;;;;;;7.13;1.35;;;25.50;57.20;;;;;;4852773;29;20402;-89
2022/06/10 19:10:32;;;;;;;5.72;1.80;;;25.50;57.10;;;;;;4852193;29;20033;-89
2022/06/10 19:12:58;;;;;;;13.10;1.90;;;25.40;58.10;;;;;;4849495;29;20034;-89
2022/06/10 19:15:30;;;;;;;5.07;1.88;;;25.30;60.20;;;;;;4850313;29;20037;-89
2022/06/10 19:17:55;;;;;;;4.45;1.60;;;25.10;62.40;;;;;;4857841;29;20030;-89
2022/06/10 19:20:29;;;;;;;3.70;1.15;;;25.00;62.60;;;;;;4848049;29;20099;-89
2022/06/10 19:22:59;;;;;;;4.95;1.48;;;24.80;62.50;;;;;;4852712;29;20027;-89
2022/06/10 19:25:28;;;;;;;6.25;1.30;;;24.70;63.10;;;;;;4847902;29;20029;-90
2022/06/10 19:27:55;;;;;;;8.00;1.73;;;24.50;63.60;;;;;;4849162;29;20101;-89
2022/06/10 19:30:21;;;;;;;9.60;1.67;;;24.40;65.00;;;;;;4848607;29;20495;-90
2022/06/10 19:32:55;;;;;;;34.53;2.83;;;24.30;65.00;;;;;;4848406;29;20121;-89
2022/06/10 19:35:25;;;;;;;7.13;1.25;;;24.30;65.60;;;;;;4848763;29;20035;-88
2022/06/10 19:37:53;;;;;;;5.80;1.52;;;24.30;66.30;;;;;;4850879;29;20101;-89
2022/06/10 19:40:26;;;;;;;13.82;1.95;;;24.00;66.00;;;;;;4855253;29;20022;-89
2022/06/10 19:43:17;;;;;;;7.10;1.30;;;23.90;68.00;;;;;;5280954;23;20025;-79
2022/06/10 19:46:38;;;;;;;5.80;1.45;;;23.70;67.40;;;;;;4822039;29;20112;-84
2022/06/10 19:49:05;;;;;;;4.60;1.75;;;23.70;69.10;;;;;;4813499;29;20469;-84
2022/06/10 19:51:35;;;;;;;10.93;2.00;;;23.50;69.80;;;;;;4822614;29;20034;-84
2022/06/10 19:54:01;;;;;;;8.07;1.70;;;23.40;70.00;;;;;;4824264;29;20053;-84
2022/06/10 19:56:31;;;;;;;9.93;2.13;;;23.30;70.30;;;;;;4823357;29;20688;-87
2022/06/10 19:58:57;;;;;;;7.45;1.70;;;23.30;70.40;;;;;;4823596;29;20039;-88
2022/06/10 20:01:32;;;;;;;6.65;2.03;;;23.20;71.10;;;;;;4823245;29;20027;-87
2022/06/10 20:04:37;;;;;;;8.88;2.30;;;23.20;71.40;;;;;;4822396;29;20514;-88
2022/06/10 20:07:12;;;;;;;5.60;2.35;;;23.10;71.70;;;;;;4785801;30;20034;-88
2022/06/10 20:09:42;;;;;;;4.45;1.80;;;23.00;72.80;;;;;;4784405;30;20445;-88
2022/06/10 20:12:08;;;;;;;8.95;2.08;;;22.90;73.70;;;;;;4779087;30;20515;-88
2022/06/10 20:14:34;;;;;;;5.00;2.40;;;22.90;73.60;;;;;;4781732;30;20113;-88
2022/06/10 20:17:01;;;;;;;7.93;2.55;;;22.90;74.00;;;;;;4783934;30;20110;-88
2022/06/10 20:19:31;;;;;;;6.35;2.65;;;22.90;74.00;;;;;;4781996;30;20039;-88
2022/06/10 20:21:57;;;;;;;10.13;3.05;;;22.70;74.10;;;;;;4769520;30;20043;-88
2022/06/10 20:24:24;;;;;;;8.07;3.08;;;22.80;74.80;;;;;;4784901;30;20087;-89
2022/06/10 20:26:51;;;;;;;7.75;2.38;;;22.70;74.80;;;;;;4767450;30;20126;-88
2022/06/10 20:29:16;;;;;;;7.57;2.50;;;22.70;75.10;;;;;;4770638;30;20070;-89
2022/06/10 20:31:54;;;;;;;4.88;1.98;;;22.70;74.90;;;;;;4785694;30;20078;-89
2022/06/10 20:34:36;;;;;;;6.15;2.25;;;22.80;74.30;;;;;;4785995;30;20047;-89
2022/06/10 20:37:04;;;;;;;4.18;1.80;;;22.80;74.30;;;;;;4785301;30;20046;-89
2022/06/10 20:39:31;;;;;;;7.18;1.70;;;22.70;74.80;;;;;;4785471;30;20077;-89
2022/06/10 20:41:57;;;;;;;4.63;1.88;;;22.60;74.70;;;;;;4816413;29;20066;-88
2022/06/10 20:44:24;;;;;;;6.35;2.05;;;22.60;74.90;;;;;;4821495;29;20518;-89
2022/06/10 20:46:55;;;;;;;6.88;1.30;;;22.60;75.10;;;;;;4823524;29;20087;-89
2022/06/10 20:49:27;;;;;;;8.80;2.15;;;22.60;75.00;;;;;;4819217;29;20037;-89
2022/06/10 20:51:53;;;;;;;;;;;22.50;75.40;;;;;;4823113;29;20045;-89
2022/06/10 20:54:20;;;;;;;4.75;1.40;;;22.50;75.00;;;;;;4821725;29;20326;-88
2022/06/10 20:56:46;;;;;;;4.45;1.13;;;22.50;74.90;;;;;;4823692;29;20030;-89
2022/06/10 20:59:13;;;;;;;7.20;1.92;;;22.50;75.20;;;;;;4823883;29;20122;-88
2022/06/10 21:01:47;;;;;;;5.75;1.60;;;22.40;74.70;;;;;;4824212;29;20499;-88
2022/06/10 21:07:29;;;;;;;6.60;1.10;;;22.40;75.50;;;;;;4824075;29;20391;-87
2022/06/10 21:10:07;;;;;;;8.10;1.98;;;22.40;76.10;;;;;;4822637;29;20042;-88
2022/06/10 21:12:34;;;;;;;7.25;1.27;;;22.20;76.90;;;;;;4823823;29;20593;-88
2022/06/10 21:14:59;;;;;;;4.55;0.93;;;22.10;77.50;;;;;;4825336;29;20058;-88
2022/06/10 21:17:38;;;;;;;3.85;1.70;;;22.00;77.80;;;;;;4826072;29;20443;-87
2022/06/10 21:20:24;;;;;;;3.35;1.42;;;22.00;78.50;;;;;;4826915;29;20035;-88
2022/06/10 21:22:50;;;;;;;5.63;1.30;;;21.90;79.10;;;;;;4825856;29;20026;-88
2022/06/10 21:25:26;;;;;;;7.40;1.65;;;21.80;79.60;;;;;;4828378;29;20031;-88
2022/06/10 21:27:53;;;;;;;5.93;1.38;;;21.80;80.10;;;;;;4829265;29;20026;-88
2022/06/10 21:30:19;;;;;;;7.53;1.48;;;21.70;80.30;;;;;;4825399;29;20406;-88
2022/06/10 21:32:47;;;;;;;4.22;1.20;;;21.70;80.80;;;;;;4825650;29;20068;-88
2022/06/10 21:35:28;;;;;;;8.60;1.42;;;21.60;81.10;;;;;;4826595;29;20117;-87
2022/06/10 21:37:55;;;;;;;3.83;1.15;;;21.50;81.70;;;;;;4825296;29;20030;-88
2022/06/10 21:40:21;;;;;;;7.00;1.52;;;21.50;82.60;;;;;;4824412;29;20060;-88
2022/06/10 21:45:33;;;;;;;4.43;1.55;;;21.40;84.00;;;;;;4811205;29;20104;-88
2022/06/10 21:48:04;;;;;;;6.63;1.50;;;21.30;83.90;;;;;;4834842;29;20398;-88
2022/06/10 21:50:42;;;;;;;4.45;1.45;;;21.20;84.50;;;;;;4825328;29;20030;-89
2022/06/10 21:53:22;;;;;;;6.68;1.35;;;21.20;85.00;;;;;;4825785;29;20042;-87
2022/06/10 21:55:49;;;;;;;6.18;1.63;;;21.10;85.20;;;;;;4826194;29;20064;-88
2022/06/10 21:58:17;;;;;;;6.18;1.50;;;21.10;85.60;;;;;;4825135;29;20124;-89
2022/06/10 22:00:47;;;;;;;4.65;1.80;;;21.10;86.40;;;;;;4826704;29;20372;-88
2022/06/10 22:03:47;;;;;;;4.80;1.88;;;21.00;86.20;;;;;;4826463;29;20482;-89
2022/06/10 22:06:18;;;;;;;13.07;2.17;;;20.90;86.60;;;;;;4824843;29;20031;-88
2022/06/10 22:08:47;;;;;;;5.87;1.73;;;20.90;87.50;;;;;;4807080;29;20038;-89
2022/06/10 22:11:17;;;;;;;6.95;2.10;;;20.80;88.10;;;;;;4807932;29;20030;-88
2022/06/10 22:13:44;;;;;;;7.13;1.70;;;20.80;88.70;;;;;;4808110;29;20519;-89
2022/06/10 22:16:37;;;;;;;7.60;2.00;;;20.70;88.80;;;;;;4808097;29;20171;-89
2022/06/10 22:19:21;;;;;;;4.65;1.73;;;20.70;89.00;;;;;;4808096;29;20038;-89
2022/06/10 22:21:50;;;;;;;5.13;1.77;;;20.60;89.20;;;;;;4806941;29;20034;-89
2022/06/10 22:24:20;;;;;;;7.40;1.92;;;20.60;90.10;;;;;;4807323;29;20403;-89
2022/06/10 22:26:48;;;;;;;4.53;1.75;;;20.60;90.10;;;;;;4817643;29;20091;-89
2022/06/10 22:29:14;;;;;;;6.15;1.95;;;20.50;90.30;;;;;;4823477;29;20034;-88
2022/06/10 22:31:41;;;;;;;7.15;2.05;;;20.40;90.40;;;;;;4825916;29;20035;-89
2022/06/10 22:34:16;;;;;;;6.13;1.95;;;20.40;90.50;;;;;;4824332;29;20578;-88
2022/06/10 22:36:41;;;;;;;7.82;2.00;;;20.40;90.20;;;;;;4825915;29;20507;-88
2022/06/10 22:39:11;;;;;;;8.00;1.58;;;20.40;90.40;;;;;;4824175;29;20037;-89
2022/06/10 22:41:39;;;;;;;5.45;2.28;;;20.30;90.50;;;;;;4827531;29;20023;-88
2022/06/10 22:44:06;;;;;;;4.68;1.70;;;20.30;90.60;;;;;;4809977;29;20427;-88
2022/06/10 22:46:38;;;;;;;6.70;2.15;;;20.30;90.50;;;;;;4823550;29;20033;-88
2022/06/10 22:49:13;;;;;;;4.50;1.80;;;20.20;90.80;;;;;;4844077;29;20037;-89
2022/06/10 22:51:42;;;;;;;11.75;2.45;;;20.20;90.80;;;;;;4829386;29;20038;-88
2022/06/10 22:54:10;;;;;;;5.78;1.70;;;20.10;90.80;;;;;;4824992;29;20034;-89